Cedar City, UT (84721)

9:52 AM MST on November 21, 2014 (GMT -0700)
Fremont mounds | Change Station
CLOSE
Current Station
Personal Weather Station
Location: Paragonah, UT
Elevation: 5873 ft
Nearby Weather Stations

Elev 5873 ft 37.89 °N, 112.77 °W | Updated 23 seconds ago

Partly Cloudy
Partly Cloudy
47.8 °F
Feels Like 48 °F
N
1.1
Wind Variable Wind from North

Today
High -- | Low -- °F
--% Chance of Precip.
Yesterday
High -- | Low -- °F
Precip. -- in
7:18 AM 5:16 PM
Waning Crescent, 1% visible
Pressure 30.00 in
Visibility 10.0 miles
Clouds Clear
Windchill 48 °F
Dew Point 26 °F
Humidity 42%
Rainfall 0.00 in
Snow Depth Not available.
UV 1 out of 12
Pollen .40 out of 12
Air Quality Not available.
Flu Activity Not available.
METAR KCDC 211553Z AUTO 00000KT 10SM CLR 02/M04 A3002 RMK AO2 SLP158 T00171044

More Conditions Fewer Conditions

Pressure 30.00 in
Visibility 10.0 miles
Clouds Clear
Windchill 48 °F
Dew Point 26 °F
Humidity 42%
Rainfall 0.00 in
Snow Depth Not available.
UV 1 out of 12
Pollen .40 out of 12
Air Quality Not available.
Flu Activity Not available.
METAR KCDC 211553Z AUTO 00000KT 10SM CLR 02/M04 A3002 RMK AO2 SLP158 T00171044

More Conditions Fewer Conditions

10-Day Weather Forecast

Almanac

Astronomy

Nov. 21, 2014 Rise Set
Actual Time
Civil Twilight
Nautical Twilight
Astronomical Twilight
Moon
Length of Visible Light
Length of Day
Tomorrow will be .
, % of the Moon is Illuminated

Today's Extremes

State Highs State Lows

Community

WunderPhotos

Upload Photos

1,772,687 photos uploaded!

WunderBlogs® & News

Nearby

Air Quality

  Air Quality AQ Index Pollutant
Not available.

Snow Depth

Station Depth Elevation

Earthquake Activity

City Distance Mag. Time & Date
Minimum magnitude displayed is 2.5.

Coastal Water Temperatures

Place Temperature

Nearby Weather Stations